Terminal Aerodrome Forecast
Issued by NWS

Home | Current Version | Previous Version | Text Only | Print | Product List | Glossary On
Versions: 1 2 3 4 5 6 7 8 9 10 11 12 13
000
FTUS46 KSEW 212300
TAFCLM
TAF
KCLM 212334Z 2200/2224 31007KT P6SM SKC
     FM220300 29005KT P6SM SCT060
     FM221200 27003KT P6SM BKN020
     FM221600 28005KT P6SM SCT025
     FM221800 34008KT P6SM SCT250=

USA.gov is the U.S. government's official web portal to all federal, state and local government web resources and services.